createdAt,value
2022-10-17T00:01:56.031Z,2.25
2022-10-17T00:04:22.435Z,2.17
2022-10-17T00:06:48.803Z,2.35
2022-10-17T00:09:15.123Z,1.70
2022-10-17T00:11:41.489Z,1.90
2022-10-17T00:14:07.900Z,2.40
2022-10-17T00:16:36.757Z,2.05
2022-10-17T00:19:06.517Z,1.65
2022-10-17T00:21:33.408Z,2.00
2022-10-17T00:24:00.402Z,1.97
2022-10-17T00:26:27.698Z,1.98
2022-10-17T00:28:54.215Z,1.77
2022-10-17T00:31:21.480Z,1.90
2022-10-17T00:33:48.044Z,1.80
2022-10-17T00:36:16.744Z,2.15
2022-10-17T00:38:44.611Z,2.05
2022-10-17T00:41:11.887Z,1.83
2022-10-17T00:43:51.828Z,2.13
2022-10-17T00:46:18.508Z,2.00
2022-10-17T00:48:45.144Z,2.35
2022-10-17T00:51:11.494Z,1.83
2022-10-17T00:53:39.355Z,2.10
2022-10-17T00:56:05.922Z,1.98
2022-10-17T00:58:32.352Z,2.63
2022-10-17T01:00:58.667Z,2.50
2022-10-17T01:03:24.965Z,1.88
2022-10-17T01:05:51.295Z,2.00
2022-10-17T01:08:17.654Z,2.33
2022-10-17T01:11:02.872Z,2.08
2022-10-17T01:13:36.661Z,1.92
2022-10-17T01:16:05.987Z,2.22
2022-10-17T01:18:40.965Z,2.03
2022-10-17T01:21:07.270Z,2.72
2022-10-17T01:23:45.000Z,2.38
2022-10-17T01:26:17.986Z,2.50
2022-10-17T01:29:03.102Z,2.05
2022-10-17T01:31:36.334Z,2.10
2022-10-17T01:34:06.129Z,2.47
2022-10-17T01:36:37.017Z,2.38
2022-10-17T01:39:09.505Z,2.60
2022-10-17T01:41:56.065Z,2.22
2022-10-17T01:44:25.507Z,3.27
2022-10-17T01:46:54.787Z,2.50
2022-10-17T01:49:24.283Z,2.45
2022-10-17T01:51:59.036Z,2.95
2022-10-17T01:54:27.930Z,2.33
2022-10-17T01:56:58.231Z,2.53
2022-10-17T01:59:26.984Z,2.53
2022-10-17T02:01:54.362Z,2.60
2022-10-17T02:04:21.247Z,2.50
2022-10-17T02:06:47.611Z,2.83
2022-10-17T02:09:16.840Z,2.33
2022-10-17T02:11:45.520Z,2.28
2022-10-17T02:14:33.578Z,1.85
2022-10-17T02:17:09.054Z,2.22
2022-10-17T02:19:54.855Z,2.10
2022-10-17T02:22:44.316Z,2.28
2022-10-17T02:25:16.546Z,2.63
2022-10-17T02:28:09.338Z,2.83
2022-10-17T02:30:48.695Z,2.90
2022-10-17T02:33:18.826Z,2.50
2022-10-17T02:35:47.435Z,2.03
2022-10-17T02:38:14.528Z,2.97
2022-10-17T02:40:41.294Z,2.67
2022-10-17T02:43:07.691Z,2.20
2022-10-17T02:45:36.196Z,2.35
2022-10-17T02:48:04.439Z,2.45
2022-10-17T02:50:39.197Z,2.13
2022-10-17T02:53:09.101Z,2.35
2022-10-17T02:55:41.201Z,2.70
2022-10-17T02:58:10.790Z,2.63
2022-10-17T03:00:38.367Z,2.28
2022-10-17T03:03:17.970Z,2.55
2022-10-17T03:05:44.311Z,2.22
2022-10-17T03:08:11.665Z,2.40
2022-10-17T03:10:37.989Z,2.75
2022-10-17T03:13:04.378Z,2.47
2022-10-17T03:15:30.694Z,2.17
2022-10-17T03:17:57.006Z,1.95
2022-10-17T03:20:23.710Z,1.73
2022-10-17T03:22:50.024Z,2.13
2022-10-17T03:25:16.392Z,2.10
2022-10-17T03:27:42.727Z,2.53
2022-10-17T03:30:09.483Z,2.03
2022-10-17T03:32:35.862Z,2.22
2022-10-17T03:35:02.286Z,2.00
2022-10-17T03:37:28.932Z,2.55
2022-10-17T03:39:55.647Z,2.50
2022-10-17T03:42:21.969Z,2.30
2022-10-17T03:44:48.319Z,1.58
2022-10-17T03:47:14.670Z,1.85
2022-10-17T03:49:41.066Z,2.35
2022-10-17T03:52:10.942Z,2.45
2022-10-17T03:54:37.262Z,2.33
2022-10-17T03:57:03.682Z,2.03
2022-10-17T03:59:30.054Z,1.55
2022-10-17T04:01:56.462Z,2.03
2022-10-17T04:04:23.091Z,2.38
2022-10-17T04:06:49.439Z,1.83
2022-10-17T04:09:15.866Z,1.88
2022-10-17T04:11:42.200Z,1.92
2022-10-17T04:14:09.754Z,2.42
2022-10-17T04:16:36.127Z,2.38
2022-10-17T04:19:03.052Z,1.85
2022-10-17T04:21:29.645Z,1.70
2022-10-17T04:23:59.904Z,1.90
2022-10-17T04:26:26.403Z,2.10
2022-10-17T04:28:52.781Z,1.55
2022-10-17T04:31:19.492Z,2.30
2022-10-17T04:33:49.828Z,1.85
2022-10-17T04:36:17.961Z,1.58
2022-10-17T04:38:44.463Z,1.98
2022-10-17T04:41:14.599Z,1.67
2022-10-17T04:43:41.186Z,2.10
2022-10-17T04:46:11.680Z,1.95
2022-10-17T04:48:38.352Z,1.88
2022-10-17T04:51:06.563Z,1.70
2022-10-17T04:53:34.315Z,2.30
2022-10-17T04:58:28.635Z,1.92
2022-10-17T05:00:55.024Z,2.42
2022-10-17T05:03:21.431Z,1.98
2022-10-17T05:05:48.246Z,2.55
2022-10-17T05:08:14.657Z,1.73
2022-10-17T05:10:42.585Z,1.92
2022-10-17T05:13:09.432Z,2.30
2022-10-17T05:15:36.103Z,2.10
2022-10-17T05:18:02.876Z,2.30
2022-10-17T05:20:29.237Z,2.38
2022-10-17T05:22:55.587Z,2.80
2022-10-17T05:25:22.069Z,2.22
2022-10-17T05:27:48.481Z,2.55
2022-10-17T05:30:14.824Z,2.35
2022-10-17T05:32:41.200Z,1.92
2022-10-17T05:35:07.662Z,2.42
2022-10-17T05:37:33.990Z,3.13
2022-10-17T05:40:00.303Z,2.17
2022-10-17T05:42:27.213Z,1.90
2022-10-17T05:44:53.848Z,1.95
2022-10-17T05:47:20.192Z,1.77
2022-10-17T05:49:51.439Z,2.33
2022-10-17T05:52:18.722Z,2.00
2022-10-17T05:54:45.107Z,2.22
2022-10-17T05:57:11.745Z,1.88
2022-10-17T05:59:38.138Z,2.03
2022-10-17T06:02:04.489Z,2.25
2022-10-17T06:04:30.913Z,1.90
2022-10-17T06:06:57.303Z,2.72
2022-10-17T06:09:24.192Z,2.25
2022-10-17T06:11:50.569Z,2.73
2022-10-17T06:14:17.036Z,2.08
2022-10-17T06:16:43.660Z,2.15
2022-10-17T06:19:11.586Z,2.17
2022-10-17T06:21:38.911Z,2.30
2022-10-17T06:24:05.485Z,1.83
2022-10-17T06:26:31.860Z,2.67
2022-10-17T06:28:58.216Z,2.03
2022-10-17T06:31:24.557Z,2.63
2022-10-17T06:33:50.877Z,2.38
2022-10-17T06:36:17.298Z,2.38
2022-10-17T06:38:43.645Z,2.30
2022-10-17T06:41:13.278Z,2.72
2022-10-17T06:43:40.514Z,2.30
2022-10-17T06:46:06.878Z,2.85
2022-10-17T06:48:33.293Z,2.70
2022-10-17T06:51:00.623Z,2.85
2022-10-17T06:53:31.217Z,2.95
2022-10-17T06:56:01.409Z,2.22
2022-10-17T06:58:28.577Z,2.08
2022-10-17T07:01:00.936Z,1.90
2022-10-17T07:03:27.765Z,2.15
2022-10-17T07:05:54.942Z,1.95
2022-10-17T07:08:21.307Z,2.33
2022-10-17T07:10:48.099Z,2.55
2022-10-17T07:13:14.752Z,2.47
2022-10-17T07:15:41.448Z,2.22
2022-10-17T07:18:08.014Z,1.90
2022-10-17T07:20:34.391Z,2.35
2022-10-17T07:23:00.779Z,2.42
2022-10-17T07:25:27.140Z,2.63
2022-10-17T07:27:53.451Z,2.95
2022-10-17T07:30:19.863Z,2.55
2022-10-17T07:32:46.335Z,2.53
2022-10-17T07:35:12.840Z,2.55
2022-10-17T07:37:39.582Z,2.53
2022-10-17T07:40:07.443Z,3.13
2022-10-17T07:42:36.052Z,2.63
2022-10-17T07:45:02.976Z,2.33
2022-10-17T07:47:31.433Z,2.63
2022-10-17T07:49:58.306Z,2.72
2022-10-17T07:52:24.627Z,2.20
2022-10-17T07:54:50.944Z,2.90
2022-10-17T07:57:17.287Z,3.20
2022-10-17T07:59:43.663Z,3.10
2022-10-17T08:02:18.373Z,3.25
2022-10-17T08:04:44.740Z,2.60
2022-10-17T08:07:21.007Z,2.97
2022-10-17T08:09:49.569Z,2.67
2022-10-17T08:12:15.952Z,2.40
2022-10-17T08:14:42.890Z,3.45
2022-10-17T08:17:09.613Z,2.53
2022-10-17T08:19:42.000Z,2.43
2022-10-17T08:22:08.463Z,2.25
2022-10-17T08:24:34.898Z,2.13
2022-10-17T08:27:01.407Z,2.08
2022-10-17T08:29:28.000Z,2.10
2022-10-17T08:31:58.675Z,2.80
2022-10-17T08:34:27.862Z,2.60
2022-10-17T08:36:54.448Z,2.22
2022-10-17T08:39:20.849Z,1.87
2022-10-17T08:41:47.155Z,2.30
2022-10-17T08:44:25.794Z,2.10
2022-10-17T08:46:53.739Z,1.75
2022-10-17T08:49:33.360Z,1.90
2022-10-17T08:52:03.677Z,1.90
2022-10-17T08:54:40.424Z,1.60
2022-10-17T08:57:10.991Z,1.55
2022-10-17T08:59:37.341Z,1.65
2022-10-17T09:02:10.475Z,1.65
2022-10-17T09:04:36.857Z,2.22
2022-10-17T09:07:21.969Z,2.03
2022-10-17T09:09:59.417Z,1.65
2022-10-17T09:12:25.732Z,1.80
2022-10-17T09:15:03.034Z,2.03
2022-10-17T09:17:44.701Z,1.50
2022-10-17T09:20:14.898Z,1.90
2022-10-17T09:22:47.331Z,1.40
2022-10-17T09:25:16.000Z,1.90
2022-10-17T09:28:05.692Z,1.83
2022-10-17T09:30:45.085Z,1.70
2022-10-17T09:33:34.535Z,1.65
2022-10-17T09:36:10.725Z,1.80
2022-10-17T09:38:41.767Z,2.08
2022-10-17T09:41:39.086Z,1.50
2022-10-17T09:44:28.067Z,1.60
2022-10-17T09:47:00.434Z,1.33
2022-10-17T09:49:37.349Z,1.27
2022-10-17T09:52:05.881Z,1.48
2022-10-17T09:54:52.549Z,1.40
2022-10-17T09:57:20.012Z,1.70
2022-10-17T10:00:15.715Z,1.77
2022-10-17T10:02:42.111Z,1.35
2022-10-17T10:05:18.826Z,1.40
2022-10-17T10:10:30.173Z,1.50
2022-10-17T10:13:22.716Z,1.70
2022-10-17T10:15:50.416Z,1.35
2022-10-17T10:18:26.243Z,1.40
2022-10-17T10:21:07.669Z,1.30
2022-10-17T10:23:34.450Z,1.55
2022-10-17T10:26:05.725Z,1.30
2022-10-17T10:28:35.198Z,1.48
2022-10-17T10:31:10.461Z,1.40
2022-10-17T10:33:41.794Z,1.60
2022-10-17T10:36:09.102Z,1.13
2022-10-17T10:38:36.058Z,1.25
2022-10-17T10:41:04.462Z,1.08
2022-10-17T10:43:36.859Z,1.40
2022-10-17T10:46:15.951Z,1.55
2022-10-17T10:48:50.098Z,1.33
2022-10-17T10:51:19.557Z,1.35
2022-10-17T10:53:46.219Z,1.27
2022-10-17T10:56:19.807Z,1.38
2022-10-17T10:59:00.370Z,1.08
2022-10-17T11:01:35.979Z,1.45
2022-10-17T11:04:02.352Z,1.35
2022-10-17T11:06:31.283Z,1.40
2022-10-17T11:09:22.482Z,0.93
2022-10-17T11:11:52.509Z,1.35
2022-10-17T11:14:28.972Z,1.55
2022-10-17T11:17:03.221Z,1.20
2022-10-17T11:19:43.945Z,1.40
2022-10-17T11:22:19.262Z,1.65
2022-10-17T11:25:04.575Z,1.42
2022-10-17T11:27:31.425Z,1.33
2022-10-17T11:29:58.188Z,1.20
2022-10-17T11:32:33.799Z,1.08
2022-10-17T11:35:03.261Z,1.20
2022-10-17T11:37:32.070Z,1.50
2022-10-17T11:40:08.130Z,1.10
2022-10-17T11:42:38.441Z,0.90
2022-10-17T11:45:11.586Z,0.90
2022-10-17T11:47:41.176Z,1.05
2022-10-17T11:55:25.044Z,1.20
2022-10-17T11:58:00.725Z,0.82
2022-10-17T12:00:48.853Z,1.40
2022-10-17T12:03:34.027Z,1.40
2022-10-17T12:06:18.709Z,1.30
2022-10-17T12:08:49.831Z,1.30
2022-10-17T12:11:34.576Z,1.10
2022-10-17T12:14:04.973Z,1.10
2022-10-17T12:16:35.452Z,1.10
2022-10-17T12:19:01.919Z,1.17
2022-10-17T12:21:32.165Z,1.17
2022-10-17T12:23:58.637Z,1.08
2022-10-17T12:26:26.319Z,1.33
2022-10-17T12:28:52.771Z,1.20
2022-10-17T12:31:19.896Z,0.85
2022-10-17T12:33:46.189Z,1.10
2022-10-17T12:36:28.187Z,1.13
2022-10-17T12:39:03.816Z,1.35
2022-10-17T12:41:39.503Z,0.98
2022-10-17T12:44:26.944Z,0.97
2022-10-17T12:47:05.244Z,1.10
2022-10-17T12:49:40.947Z,1.10
2022-10-17T12:52:22.517Z,1.08
2022-10-17T12:55:11.389Z,0.90
2022-10-17T12:57:39.295Z,1.08
2022-10-17T13:00:14.390Z,1.00
2022-10-17T13:02:40.834Z,0.93
2022-10-17T13:05:11.263Z,1.20
2022-10-17T13:07:40.474Z,0.82
2022-10-17T13:10:09.065Z,1.65
2022-10-17T13:12:41.240Z,0.90
2022-10-17T13:15:08.417Z,0.85
2022-10-17T13:22:29.561Z,1.20
2022-10-17T13:25:07.312Z,0.77
2022-10-17T13:27:34.619Z,1.20
2022-10-17T13:30:02.114Z,1.27
2022-10-17T13:32:38.720Z,1.33
2022-10-17T13:37:31.474Z,1.13
2022-10-17T13:40:06.233Z,0.98
2022-10-17T13:42:38.965Z,0.80
2022-10-17T13:45:14.051Z,1.23
2022-10-17T13:47:41.145Z,0.80
2022-10-17T13:50:26.370Z,0.68
2022-10-17T13:53:12.709Z,1.10
2022-10-17T13:55:39.113Z,0.93
2022-10-17T13:58:15.898Z,1.10
2022-10-17T14:00:42.555Z,1.02
2022-10-17T14:03:08.935Z,0.90
2022-10-17T14:05:35.796Z,1.10
2022-10-17T14:08:13.336Z,0.80
2022-10-17T14:10:42.192Z,1.10
2022-10-17T14:13:16.699Z,1.23
2022-10-17T14:15:44.932Z,1.20
2022-10-17T14:18:16.582Z,1.08
2022-10-17T14:21:31.756Z,0.90
2022-10-17T14:23:43.287Z,1.10
2022-10-17T14:26:09.665Z,1.00
2022-10-17T14:28:36.292Z,0.73
2022-10-17T14:31:41.612Z,0.90
2022-10-17T14:34:20.070Z,0.90
2022-10-17T14:36:48.787Z,0.98
2022-10-17T14:39:23.247Z,0.85
2022-10-17T14:41:49.729Z,1.10
2022-10-17T14:44:21.652Z,0.87
2022-10-17T14:46:50.896Z,0.90
2022-10-17T14:49:24.687Z,0.90
2022-10-17T14:52:15.169Z,0.80
2022-10-17T14:54:44.470Z,1.23
2022-10-17T14:57:17.894Z,0.82
2022-10-17T14:59:59.651Z,0.80
2022-10-17T15:02:28.023Z,1.00
2022-10-17T15:04:54.763Z,1.42
2022-10-17T15:07:21.511Z,0.90
2022-10-17T15:09:48.836Z,1.20
2022-10-17T15:14:43.210Z,1.00
2022-10-17T15:17:29.946Z,1.25
2022-10-17T15:19:56.900Z,1.83
2022-10-17T15:22:23.987Z,1.20
2022-10-17T15:24:50.423Z,1.30
2022-10-17T15:27:20.703Z,1.45
2022-10-17T15:29:47.202Z,1.17
2022-10-17T15:32:13.756Z,1.17
2022-10-17T15:34:40.322Z,1.33
2022-10-17T15:37:07.349Z,1.17
2022-10-17T15:39:33.891Z,1.08
2022-10-17T15:42:00.339Z,1.30
2022-10-17T15:44:26.714Z,1.10
2022-10-17T15:46:53.854Z,1.27
2022-10-17T15:49:20.263Z,0.88
2022-10-17T15:51:48.504Z,0.90
2022-10-17T15:54:16.774Z,1.70
2022-10-17T15:56:43.448Z,2.30
2022-10-17T15:59:14.932Z,3.40
2022-10-17T16:01:41.656Z,3.55
2022-10-17T16:04:12.814Z,3.08
2022-10-17T16:06:39.276Z,3.42
2022-10-17T16:09:05.605Z,3.00
2022-10-17T16:11:34.708Z,2.33
2022-10-17T16:14:02.308Z,2.17
2022-10-17T16:16:29.012Z,2.55
2022-10-17T16:18:55.570Z,2.10
2022-10-17T16:21:25.121Z,2.90
2022-10-17T16:23:51.723Z,7.82
2022-10-17T16:26:18.547Z,9.90
2022-10-17T16:28:46.206Z,10.57
2022-10-17T16:31:22.006Z,6.43
2022-10-17T16:33:49.386Z,5.07
2022-10-17T16:36:15.773Z,3.63
2022-10-17T16:38:42.323Z,3.10
2022-10-17T16:41:15.653Z,3.70
2022-10-17T16:43:42.065Z,4.10
2022-10-17T16:46:08.402Z,4.55
2022-10-17T16:48:34.795Z,4.63
2022-10-17T16:51:02.297Z,3.78
2022-10-17T16:56:01.890Z,3.25
2022-10-17T16:58:30.693Z,3.45
2022-10-17T17:01:00.264Z,3.22
2022-10-17T17:03:26.694Z,3.00
2022-10-17T17:05:53.077Z,3.22
2022-10-17T17:08:19.445Z,3.50
2022-10-17T17:10:50.990Z,2.85
2022-10-17T17:13:17.457Z,2.72
2022-10-17T17:18:15.103Z,3.10
2022-10-17T17:20:41.876Z,2.53
2022-10-17T17:23:13.689Z,2.78
2022-10-17T17:25:42.157Z,2.80
2022-10-17T17:28:08.857Z,3.00
2022-10-17T17:30:35.580Z,2.53
2022-10-17T17:33:02.070Z,2.73
2022-10-17T17:35:28.704Z,3.53
2022-10-17T17:37:55.059Z,3.38
2022-10-17T17:40:21.424Z,2.40
2022-10-17T17:42:47.823Z,2.80
2022-10-17T17:45:14.248Z,2.28
2022-10-17T17:47:40.573Z,2.47
2022-10-17T17:50:07.063Z,3.00
2022-10-17T17:52:33.574Z,2.88
2022-10-17T17:55:00.007Z,2.80
2022-10-17T17:57:26.378Z,2.90
2022-10-17T17:59:52.774Z,2.72
2022-10-17T18:02:19.123Z,2.70
2022-10-17T18:04:45.514Z,2.42
2022-10-17T18:07:11.906Z,2.97
2022-10-17T18:09:38.512Z,3.28
2022-10-17T18:12:05.023Z,3.20
2022-10-17T18:14:31.363Z,3.10
2022-10-17T18:16:57.685Z,3.20
2022-10-17T18:19:24.053Z,3.85
2022-10-17T18:21:50.438Z,3.45
2022-10-17T18:24:16.846Z,3.13
2022-10-17T18:26:43.198Z,3.20
2022-10-17T18:29:09.836Z,3.03
2022-10-17T18:31:36.393Z,3.97
2022-10-17T18:34:03.903Z,3.85
2022-10-17T18:36:31.062Z,4.00
2022-10-17T18:38:58.798Z,13.57
2022-10-17T18:43:52.103Z,6.78
2022-10-17T18:46:22.530Z,6.45
2022-10-17T18:48:49.399Z,5.03
2022-10-17T18:51:16.670Z,4.53
2022-10-17T18:53:44.182Z,5.45
2022-10-17T18:56:11.141Z,5.15
2022-10-17T18:58:38.063Z,5.45
2022-10-17T19:01:05.822Z,7.87
2022-10-17T19:06:02.443Z,6.80
2022-10-17T19:08:29.241Z,6.20
2022-10-17T19:10:55.648Z,6.22
2022-10-17T19:13:21.969Z,6.82
2022-10-17T19:15:48.385Z,7.18
2022-10-17T19:18:14.812Z,7.78
2022-10-17T19:20:41.182Z,7.28
2022-10-17T19:23:07.534Z,7.95
2022-10-17T19:25:34.040Z,16.95
2022-10-17T19:28:00.519Z,9.43
2022-10-17T19:30:26.895Z,9.13
2022-10-17T19:32:53.261Z,7.50
2022-10-17T19:35:19.615Z,8.63
2022-10-17T19:37:45.940Z,8.45
2022-10-17T19:40:12.665Z,9.90
2022-10-17T19:42:39.026Z,8.48
2022-10-17T19:45:05.778Z,11.57
2022-10-17T19:47:32.165Z,11.93
2022-10-17T19:49:58.558Z,10.00
2022-10-17T19:52:24.967Z,8.60
2022-10-17T19:54:51.359Z,7.45
2022-10-17T19:57:17.685Z,7.25
2022-10-17T19:59:44.193Z,7.88
2022-10-17T20:02:12.349Z,7.38
2022-10-17T20:04:49.538Z,7.57
2022-10-17T20:07:25.067Z,8.55
2022-10-17T20:09:51.443Z,10.57
2022-10-17T20:12:17.739Z,8.63
2022-10-17T20:14:44.180Z,7.88
2022-10-17T20:17:10.520Z,8.60
2022-10-17T20:19:36.832Z,7.38
2022-10-17T20:22:03.168Z,7.85
2022-10-17T20:24:29.474Z,7.90
2022-10-17T20:26:55.835Z,8.38
2022-10-17T20:29:24.023Z,9.32
2022-10-17T20:31:50.578Z,8.07
2022-10-17T20:34:18.046Z,6.85
2022-10-17T20:36:44.733Z,6.70
2022-10-17T20:39:12.317Z,7.68
2022-10-17T20:41:38.948Z,13.52
2022-10-17T20:44:06.918Z,13.90
2022-10-17T20:46:37.880Z,10.02
2022-10-17T20:49:08.886Z,8.52
2022-10-17T20:51:35.715Z,8.82
2022-10-17T20:54:02.968Z,8.20
2022-10-17T20:56:30.449Z,7.57
2022-10-17T20:58:58.086Z,8.55
2022-10-17T21:01:25.218Z,8.55
2022-10-17T21:03:51.841Z,9.30
2022-10-17T21:06:18.667Z,9.32
2022-10-17T21:08:46.097Z,9.38
2022-10-17T21:11:12.468Z,9.23
2022-10-17T21:13:39.221Z,10.60
2022-10-17T21:16:10.079Z,9.65
2022-10-17T21:18:36.959Z,9.70
2022-10-17T21:21:09.395Z,9.60
2022-10-17T21:23:35.766Z,9.15
2022-10-17T21:26:03.842Z,9.15
2022-10-17T21:28:30.787Z,9.35
2022-10-17T21:31:06.341Z,9.47
2022-10-17T21:33:32.655Z,8.73
2022-10-17T21:35:58.961Z,9.63
2022-10-17T21:38:25.293Z,10.18
2022-10-17T21:40:55.319Z,8.93
2022-10-17T21:43:22.530Z,9.52
2022-10-17T21:45:48.862Z,15.00
2022-10-17T21:48:15.202Z,8.85
2022-10-17T21:50:41.512Z,8.80
2022-10-17T21:53:07.851Z,8.68
2022-10-17T21:55:36.030Z,9.05
2022-10-17T21:58:02.402Z,8.73
2022-10-17T22:00:28.830Z,8.63
2022-10-17T22:02:55.176Z,8.80
2022-10-17T22:05:21.510Z,9.30
2022-10-17T22:07:47.927Z,8.85
2022-10-17T22:10:14.340Z,8.90
2022-10-17T22:12:40.735Z,8.45
2022-10-17T22:15:07.420Z,7.80
2022-10-17T22:17:34.116Z,8.23
2022-10-17T22:20:00.479Z,9.10
2022-10-17T22:22:26.819Z,8.95
2022-10-17T22:24:53.147Z,8.48
2022-10-17T22:27:19.533Z,8.95
2022-10-17T22:29:45.866Z,8.15
2022-10-17T22:32:12.249Z,8.35
2022-10-17T22:34:38.595Z,8.45
2022-10-17T22:37:04.931Z,9.02
2022-10-17T22:39:31.249Z,10.15
2022-10-17T22:41:57.828Z,10.48
2022-10-17T22:44:24.199Z,9.38
2022-10-17T22:46:50.516Z,9.63
2022-10-17T22:49:16.913Z,8.90
2022-10-17T22:51:43.260Z,9.07
2022-10-17T22:56:53.197Z,8.35
2022-10-17T22:59:19.650Z,8.43
2022-10-17T23:01:46.021Z,8.30
2022-10-17T23:04:12.411Z,8.10
2022-10-17T23:06:38.805Z,7.82
2022-10-17T23:09:05.313Z,7.93
2022-10-17T23:11:31.686Z,7.65
2022-10-17T23:13:58.021Z,8.40
2022-10-17T23:16:24.387Z,9.10
2022-10-17T23:18:50.812Z,8.40
2022-10-17T23:21:17.203Z,7.82
2022-10-17T23:23:43.528Z,8.23
2022-10-17T23:26:11.396Z,8.15
2022-10-17T23:31:14.449Z,7.57
2022-10-17T23:33:41.420Z,7.70
2022-10-17T23:36:09.499Z,7.90
2022-10-17T23:41:02.167Z,8.25
2022-10-17T23:43:28.541Z,7.32
2022-10-17T23:45:54.908Z,6.95
2022-10-17T23:48:21.313Z,8.20
2022-10-17T23:50:47.683Z,7.53
2022-10-17T23:53:14.072Z,8.52
2022-10-17T23:55:40.403Z,8.50
2022-10-17T23:58:07.045Z,7.82
